Time;durP1;ratioP1;P1;durP2;ratioP2;P2;SDS_P1;SDS_P2;PMS_P1;PMS_P2;Temp;Humidity;BMP_temperature;BMP_pressure;BME280_temperature;BME280_humidity;BME280_pressure;Samples;Min_cycle;Max_cycle;Signal;HPM_P1;HPM_P2
2024/02/09 00:00:12;;;;;;;6.72;3.10;;;12.50;99.90;;;;;;4951701;28;20206;-87
2024/02/09 00:02:42;;;;;;;5.32;2.92;;;12.60;99.90;;;;;;4956313;28;20187;-87
2024/02/09 00:05:09;;;;;;;6.47;2.90;;;12.60;99.90;;;;;;4940936;28;20234;-88
2024/02/09 00:07:35;;;;;;;5.20;2.42;;;12.60;99.90;;;;;;4957030;28;20197;-87
2024/02/09 00:10:01;;;;;;;4.87;2.83;;;12.70;99.90;;;;;;4960017;28;20191;-87
2024/02/09 00:12:27;;;;;;;4.57;2.83;;;13.00;99.90;;;;;;4956931;28;20239;-88
2024/02/09 00:14:52;;;;;;;8.15;4.07;;;12.90;99.90;;;;;;4955487;28;20486;-87
2024/02/09 00:17:18;;;;;;;4.30;2.70;;;12.60;99.90;;;;;;4974374;28;20648;-88
2024/02/09 00:19:43;;;;;;;8.77;3.17;;;12.60;99.90;;;;;;4954046;28;20605;-88
2024/02/09 00:22:12;;;;;;;7.87;3.20;;;12.60;99.90;;;;;;4953538;28;20629;-88
2024/02/09 00:24:41;;;;;;;5.80;3.15;;;13.00;99.90;;;;;;4956702;28;20653;-88
2024/02/09 00:27:06;;;;;;;7.55;3.30;;;12.90;99.90;;;;;;4954196;28;20188;-88
2024/02/09 00:29:32;;;;;;;5.83;3.63;;;12.60;99.90;;;;;;4953895;28;20223;-88
2024/02/09 00:31:57;;;;;;;4.97;2.63;;;12.50;99.90;;;;;;4957367;28;20251;-88
2024/02/09 00:34:23;;;;;;;7.03;2.87;;;12.40;99.90;;;;;;4966603;28;20227;-88
2024/02/09 00:36:50;;;;;;;6.93;2.67;;;12.30;99.90;;;;;;4977556;28;20253;-87
2024/02/09 00:39:18;;;;;;;5.35;3.30;;;12.40;99.90;;;;;;4984226;28;20183;-88
2024/02/09 00:41:44;;;;;;;3.45;2.50;;;12.40;99.90;;;;;;4955231;28;20184;-88
2024/02/09 00:44:10;;;;;;;6.53;2.80;;;11.80;99.90;;;;;;4971496;28;20214;-88
2024/02/09 00:46:43;;;;;;;6.45;3.28;;;12.80;99.90;;;;;;4955567;28;20294;-88
2024/02/09 00:49:09;;;;;;;4.63;2.88;;;12.60;99.90;;;;;;4957865;28;20207;-87
2024/02/09 00:51:35;;;;;;;9.35;4.35;;;12.20;99.90;;;;;;4953909;28;20218;-88
2024/02/09 00:54:01;;;;;;;5.50;2.58;;;12.20;99.90;;;;;;4970998;28;20180;-87
2024/02/09 00:56:27;;;;;;;4.70;3.20;;;12.80;99.90;;;;;;4952683;28;20215;-87
2024/02/09 00:58:55;;;;;;;7.30;3.08;;;12.20;99.90;;;;;;4952851;28;20810;-88
2024/02/09 01:01:21;;;;;;;7.60;2.78;;;12.20;99.90;;;;;;4973466;28;20606;-88
2024/02/09 01:03:47;;;;;;;9.80;3.60;;;12.40;99.90;;;;;;4948960;28;20229;-87
2024/02/09 01:06:13;;;;;;;6.70;3.03;;;12.40;99.90;;;;;;4954873;28;20218;-87
2024/02/09 01:08:39;;;;;;;5.40;3.10;;;12.80;99.90;;;;;;4952844;28;20835;-88
2024/02/09 01:11:08;;;;;;;4.53;3.22;;;12.30;99.90;;;;;;4954911;28;20193;-87
2024/02/09 02:46:25;;;;;;;6.27;3.37;;;11.40;99.90;;;;;;4973129;28;20211;-88
2024/02/09 03:05:24;;;;;;;4.05;3.30;;;12.00;99.90;;;;;;4983931;28;20245;-88
2024/02/09 03:07:49;;;;;;;8.02;3.55;;;11.40;99.90;;;;;;4978784;28;20198;-87
2024/02/09 03:10:16;;;;;;;7.73;3.87;;;11.80;99.90;;;;;;4966242;28;20412;-87
2024/02/09 03:12:42;;;;;;;6.57;3.42;;;11.80;99.90;;;;;;4953004;28;20453;-87
2024/02/09 03:15:09;;;;;;;5.65;3.10;;;11.40;99.90;;;;;;4953515;28;20308;-87
2024/02/09 03:17:37;;;;;;;9.38;3.78;;;11.30;99.90;;;;;;4954847;28;20195;-87
2024/02/09 03:20:04;;;;;;;11.60;3.72;;;11.20;99.90;;;;;;4971008;28;20186;-87
2024/02/09 03:22:31;;;;;;;7.63;3.60;;;11.30;99.90;;;;;;4972048;28;20614;-88
2024/02/09 03:25:03;;;;;;;7.30;3.70;;;11.50;99.90;;;;;;4951519;28;20765;-87
2024/02/09 03:27:33;;;;;;;8.25;3.15;;;11.30;99.90;;;;;;4977215;28;20195;-87
2024/02/09 03:29:59;;;;;;;5.22;2.80;;;11.10;99.90;;;;;;4971233;28;20210;-87
2024/02/09 03:32:33;;;;;;;8.43;3.40;;;11.20;99.90;;;;;;4956722;28;20186;-87
2024/02/09 03:35:01;;;;;;;5.15;2.75;;;11.20;99.90;;;;;;4957441;28;20218;-88
2024/02/09 03:37:29;;;;;;;5.18;2.47;;;11.60;99.90;;;;;;4952263;28;20232;-87
2024/02/09 03:39:58;;;;;;;3.85;2.45;;;11.30;99.90;;;;;;4957402;28;20182;-87
2024/02/09 03:42:23;;;;;;;4.53;2.30;;;11.20;99.90;;;;;;4973751;28;20265;-87
2024/02/09 03:44:56;;;;;;;5.13;2.80;;;11.30;99.90;;;;;;4956883;28;20322;-87
2024/02/09 03:47:24;;;;;;;6.65;2.25;;;11.30;99.90;;;;;;4959061;28;20206;-87
2024/02/09 03:49:51;;;;;;;6.60;2.80;;;11.00;99.90;;;;;;4985887;28;20217;-87
2024/02/09 03:52:19;;;;;;;5.90;2.47;;;11.70;99.90;;;;;;4980467;28;20178;-87
2024/02/09 03:54:45;;;;;;;5.25;3.03;;;11.70;99.90;;;;;;4972554;28;20255;-87
2024/02/09 03:57:11;;;;;;;3.72;2.30;;;11.50;99.90;;;;;;4957581;28;20188;-87
2024/02/09 03:59:38;;;;;;;3.20;2.00;;;11.40;99.90;;;;;;4973411;28;20273;-87
2024/02/09 04:02:04;;;;;;;4.65;2.28;;;11.60;99.90;;;;;;4955379;28;20178;-87
2024/02/09 04:04:30;;;;;;;4.18;2.05;;;11.20;99.90;;;;;;4954464;28;20229;-87
2024/02/09 04:06:56;;;;;;;5.73;2.07;;;11.20;99.90;;;;;;4952771;28;20183;-88
2024/02/09 04:09:21;;;;;;;5.97;2.73;;;11.20;99.90;;;;;;4956110;28;20799;-88
2024/02/09 04:11:47;;;;;;;2.70;2.10;;;11.20;99.90;;;;;;4957631;28;20887;-88
2024/02/09 04:14:16;;;;;;;4.50;2.30;;;11.10;99.90;;;;;;4955087;28;20270;-87
2024/02/09 04:16:42;;;;;;;5.40;2.13;;;11.60;99.90;;;;;;4953037;28;20465;-88
2024/02/09 04:19:07;;;;;;;6.83;2.13;;;11.30;99.90;;;;;;4954204;28;20178;-88
2024/02/09 04:21:33;;;;;;;3.90;2.40;;;11.70;99.90;;;;;;4962353;28;20169;-88
2024/02/09 04:23:59;;;;;;;5.40;2.40;;;11.30;99.90;;;;;;4967848;28;20578;-87
2024/02/09 04:26:24;;;;;;;3.97;2.40;;;11.40;99.90;;;;;;4954245;28;20466;-87
2024/02/09 04:28:52;;;;;;;5.93;2.70;;;11.40;99.90;;;;;;4958549;28;20208;-87
2024/02/09 04:31:18;;;;;;;3.72;2.33;;;11.20;99.90;;;;;;4979672;28;20259;-88
2024/02/09 04:33:43;;;;;;;5.60;3.00;;;11.60;99.90;;;;;;4977053;28;20196;-88
2024/02/09 04:36:10;;;;;;;3.10;2.10;;;11.10;99.90;;;;;;4956567;28;20226;-88
2024/02/09 04:38:40;;;;;;;3.67;2.00;;;11.70;99.90;;;;;;4955296;28;20625;-87
2024/02/09 04:41:06;;;;;;;4.18;2.05;;;11.30;99.90;;;;;;4956336;28;20191;-87
2024/02/09 04:43:31;;;;;;;6.20;2.27;;;11.50;99.90;;;;;;4958201;28;20572;-88
2024/02/09 04:45:57;;;;;;;4.40;2.00;;;11.60;99.90;;;;;;4958694;28;20211;-88
2024/02/09 04:48:23;;;;;;;4.83;1.60;;;11.80;99.90;;;;;;4955904;28;20195;-87
2024/02/09 04:50:48;;;;;;;5.40;2.23;;;11.40;99.90;;;;;;4950927;28;20659;-88
2024/02/09 04:53:15;;;;;;;4.00;2.33;;;12.00;99.90;;;;;;4954957;28;20196;-88
2024/02/09 04:55:41;;;;;;;4.85;2.50;;;12.10;99.90;;;;;;4956118;28;20215;-88
2024/02/09 04:58:07;;;;;;;4.40;1.87;;;12.50;99.90;;;;;;4958012;28;20384;-88
2024/02/09 05:00:33;;;;;;;2.93;1.90;;;11.60;99.90;;;;;;4961067;28;20446;-87
2024/02/09 05:02:59;;;;;;;2.47;1.80;;;11.50;99.90;;;;;;4967600;28;20184;-87
2024/02/09 05:05:26;;;;;;;2.97;1.53;;;11.90;99.90;;;;;;4969385;28;20222;-87
2024/02/09 05:07:53;;;;;;;1.92;1.45;;;11.70;99.90;;;;;;4976052;28;20187;-87
2024/02/09 05:10:20;;;;;;;2.90;1.70;;;11.90;99.90;;;;;;4995107;28;20187;-87
2024/02/09 05:12:46;;;;;;;3.88;1.65;;;11.70;99.90;;;;;;4979868;28;20183;-88
2024/02/09 05:15:12;;;;;;;2.77;1.67;;;11.90;99.90;;;;;;4960783;28;20292;-87
2024/02/09 05:17:39;;;;;;;2.60;1.70;;;11.70;99.90;;;;;;4963265;28;20183;-88
2024/02/09 05:20:06;;;;;;;2.60;1.40;;;12.10;99.90;;;;;;4973556;28;20185;-87
2024/02/09 05:22:31;;;;;;;2.85;1.35;;;11.90;99.90;;;;;;4987805;28;20514;-87
2024/02/09 05:24:57;;;;;;;2.47;1.30;;;11.60;99.90;;;;;;4955985;28;20225;-88
2024/02/09 05:27:22;;;;;;;3.20;1.53;;;12.10;99.90;;;;;;4954837;28;20193;-87
2024/02/09 05:29:48;;;;;;;1.47;1.27;;;12.00;99.90;;;;;;4955737;28;20199;-88
2024/02/09 05:32:13;;;;;;;3.27;1.70;;;12.30;99.90;;;;;;4962249;28;20191;-88
2024/02/09 05:34:44;;;;;;;2.03;1.27;;;11.80;99.90;;;;;;4962510;28;20305;-87
2024/02/09 05:37:12;;;;;;;1.83;1.33;;;11.60;99.90;;;;;;4974756;28;20218;-88
2024/02/09 05:39:41;;;;;;;1.48;1.38;;;12.50;99.90;;;;;;4977874;28;20173;-87
2024/02/09 05:42:07;;;;;;;1.95;1.60;;;12.00;99.90;;;;;;4959760;28;20197;-88
2024/02/09 05:44:33;;;;;;;2.70;1.40;;;12.20;99.90;;;;;;4956708;28;20212;-88
2024/02/09 05:47:00;;;;;;;1.20;1.05;;;11.90;99.90;;;;;;4979835;28;20182;-87
2024/02/09 05:49:26;;;;;;;1.90;1.35;;;12.50;99.90;;;;;;4953341;28;20203;-87
2024/02/09 05:51:52;;;;;;;1.88;1.17;;;11.90;99.90;;;;;;4973626;28;20190;-88
2024/02/09 05:54:19;;;;;;;2.58;1.08;;;12.50;99.90;;;;;;4957738;28;20234;-88
2024/02/09 05:56:46;;;;;;;2.35;1.30;;;12.00;99.90;;;;;;4973538;28;20239;-88
2024/02/09 05:59:15;;;;;;;1.40;1.30;;;12.10;99.90;;;;;;4960007;28;20194;-87
2024/02/09 06:01:41;;;;;;;1.52;1.10;;;12.30;99.90;;;;;;4961115;28;20183;-87
2024/02/09 06:04:07;;;;;;;2.10;1.07;;;12.50;99.90;;;;;;4960479;28;20203;-87
2024/02/09 06:06:34;;;;;;;0.82;0.70;;;12.40;99.90;;;;;;4957896;28;20330;-88
2024/02/09 06:09:01;;;;;;;2.45;1.35;;;12.20;99.90;;;;;;4960296;28;20208;-88
2024/02/09 06:11:27;;;;;;;2.40;1.50;;;12.30;99.90;;;;;;4956926;28;20198;-87
2024/02/09 06:13:52;;;;;;;1.37;1.07;;;12.30;99.90;;;;;;4958826;28;20179;-87
2024/02/09 06:16:22;;;;;;;1.30;1.20;;;12.50;99.90;;;;;;4973140;28;20244;-87
2024/02/09 06:18:49;;;;;;;1.75;1.20;;;12.30;99.90;;;;;;4960163;28;20184;-87
2024/02/09 06:21:18;;;;;;;2.08;1.00;;;12.50;99.90;;;;;;4978585;28;21789;-88
2024/02/09 06:23:45;;;;;;;1.08;0.90;;;12.10;99.90;;;;;;4951467;28;20190;-88
2024/02/09 06:26:11;;;;;;;1.13;0.90;;;12.20;99.90;;;;;;4949903;28;20205;-88
2024/02/09 06:28:37;;;;;;;1.83;1.20;;;12.40;99.90;;;;;;4961898;28;20563;-87
2024/02/09 06:31:03;;;;;;;1.07;0.73;;;12.30;99.90;;;;;;4956824;28;20450;-87
2024/02/09 06:33:28;;;;;;;1.23;1.13;;;12.30;99.90;;;;;;4961973;28;20223;-87
2024/02/09 06:35:54;;;;;;;3.17;1.00;;;12.10;99.90;;;;;;4960212;28;20604;-87
2024/02/09 06:38:21;;;;;;;2.25;0.98;;;11.90;99.90;;;;;;4958484;28;20195;-87
2024/02/09 06:40:47;;;;;;;1.20;0.80;;;12.40;99.90;;;;;;4962957;28;20195;-87
2024/02/09 06:43:16;;;;;;;1.10;1.00;;;12.20;99.90;;;;;;4963891;28;20183;-91
2024/02/09 06:45:42;;;;;;;1.55;1.10;;;12.00;99.90;;;;;;4943860;28;20707;-91
2024/02/09 06:48:09;;;;;;;1.00;0.90;;;12.20;99.90;;;;;;4942543;28;20196;-92
2024/02/09 06:50:35;;;;;;;1.70;1.02;;;12.60;99.90;;;;;;4949719;28;20211;-91
2024/02/09 06:53:07;;;;;;;1.02;0.90;;;12.20;99.90;;;;;;4958741;28;20254;-91
2024/02/09 06:55:36;;;;;;;1.98;1.27;;;12.20;99.90;;;;;;4957393;28;20210;-90
2024/02/09 06:58:05;;;;;;;1.20;1.05;;;12.20;99.90;;;;;;4957549;28;20720;-90
2024/02/09 07:00:35;;;;;;;1.13;1.05;;;12.60;99.90;;;;;;4958595;28;20183;-90
2024/02/09 07:03:05;;;;;;;1.35;1.10;;;12.20;99.90;;;;;;4962546;28;20184;-89
2024/02/09 07:05:30;;;;;;;2.80;1.30;;;12.70;99.90;;;;;;4978999;28;20283;-89
2024/02/09 07:07:56;;;;;;;1.87;1.00;;;13.30;99.90;;;;;;4961551;28;20231;-89
2024/02/09 07:10:22;;;;;;;1.10;1.00;;;13.10;99.90;;;;;;4956466;28;20606;-91
2024/02/09 07:12:48;;;;;;;1.55;1.45;;;11.60;99.90;;;;;;4958487;28;20187;-89
2024/02/09 07:15:17;;;;;;;2.70;1.30;;;12.30;99.90;;;;;;4955039;28;20302;-90
2024/02/09 07:17:43;;;;;;;3.38;1.30;;;13.00;99.90;;;;;;4960455;28;20324;-91
2024/02/09 07:20:12;;;;;;;1.52;1.33;;;11.80;99.90;;;;;;4961673;28;20500;-91
2024/02/09 07:22:38;;;;;;;3.80;1.20;;;12.10;99.90;;;;;;4958101;28;20181;-87
2024/02/09 07:25:05;;;;;;;1.15;1.05;;;12.10;99.90;;;;;;4957794;28;20215;-89
2024/02/09 07:27:30;;;;;;;2.35;1.10;;;12.10;99.90;;;;;;4941579;28;20203;-88
2024/02/09 07:29:56;;;;;;;1.80;1.20;;;12.60;99.90;;;;;;4961521;28;20261;-89
2024/02/09 07:32:23;;;;;;;1.37;1.10;;;12.20;99.90;;;;;;4957135;28;20241;-88
2024/02/09 07:34:49;;;;;;;1.13;1.02;;;12.70;99.90;;;;;;4959132;28;20243;-88
2024/02/09 07:37:15;;;;;;;1.87;1.37;;;12.10;99.90;;;;;;4963182;28;20193;-88
2024/02/09 07:39:41;;;;;;;3.80;1.30;;;12.30;99.90;;;;;;4963203;28;20206;-89
2024/02/09 07:42:08;;;;;;;2.38;1.58;;;11.70;99.90;;;;;;4959610;28;20184;-88
2024/02/09 07:44:36;;;;;;;4.70;1.73;;;12.10;99.90;;;;;;4961449;28;20255;-89
2024/02/09 07:47:04;;;;;;;2.47;1.25;;;12.30;99.90;;;;;;4961982;28;20184;-87
2024/02/09 07:49:34;;;;;;;6.40;2.80;;;12.40;99.90;;;;;;4982451;28;20184;-85
2024/02/09 07:52:00;;;;;;;2.88;1.83;;;12.70;99.90;;;;;;4948312;28;20263;-86
2024/02/09 07:54:31;;;;;;;2.22;1.20;;;12.90;99.90;;;;;;4962635;28;20192;-86
2024/02/09 07:56:57;;;;;;;2.20;1.63;;;12.20;99.90;;;;;;4961398;28;20187;-85
2024/02/09 07:59:26;;;;;;;1.08;1.00;;;12.50;99.90;;;;;;4963585;28;20180;-86
2024/02/09 08:01:53;;;;;;;1.73;1.15;;;12.50;99.90;;;;;;4960317;28;20231;-86
2024/02/09 08:04:19;;;;;;;2.90;1.30;;;13.30;99.90;;;;;;4961433;28;20203;-86
2024/02/09 08:06:45;;;;;;;2.55;1.20;;;12.50;99.90;;;;;;4963098;28;20207;-86
2024/02/09 08:09:11;;;;;;;1.30;1.10;;;12.20;99.90;;;;;;4972802;28;20191;-86
2024/02/09 08:11:38;;;;;;;1.73;1.20;;;13.70;99.90;;;;;;4967470;28;20176;-86
2024/02/09 08:14:06;;;;;;;0.90;0.90;;;13.20;99.90;;;;;;4957800;28;20448;-86
2024/02/09 08:16:32;;;;;;;2.00;1.20;;;13.20;99.90;;;;;;4965408;28;20215;-87
2024/02/09 08:18:58;;;;;;;2.10;1.60;;;12.50;99.90;;;;;;4957324;29;20252;-87
2024/02/09 08:21:23;;;;;;;2.53;1.60;;;13.40;99.90;;;;;;4965895;28;20262;-86
2024/02/09 08:23:49;;;;;;;2.97;1.90;;;12.80;99.90;;;;;;4964545;28;20380;-87
2024/02/09 08:26:16;;;;;;;3.27;1.67;;;13.40;99.90;;;;;;4960876;28;20223;-87
2024/02/09 08:28:45;;;;;;;2.38;1.80;;;13.40;99.90;;;;;;4962967;28;20203;-87
2024/02/09 08:31:15;;;;;;;1.63;1.52;;;13.20;99.90;;;;;;4980030;28;20904;-87
2024/02/09 08:33:43;;;;;;;1.50;1.40;;;14.10;99.90;;;;;;4967915;28;20224;-86
2024/02/09 08:36:10;;;;;;;2.20;1.27;;;13.80;99.90;;;;;;4965349;28;20284;-86
2024/02/09 08:38:38;;;;;;;2.38;1.60;;;14.30;99.90;;;;;;4964077;28;20185;-86
2024/02/09 08:41:07;;;;;;;1.67;1.38;;;13.90;99.90;;;;;;4966576;28;20184;-87
2024/02/09 08:43:33;;;;;;;1.95;1.67;;;14.00;99.90;;;;;;4976772;28;20240;-86
2024/02/09 08:45:58;;;;;;;2.17;1.90;;;14.20;99.90;;;;;;4949892;28;20272;-87
2024/02/09 08:48:24;;;;;;;2.10;1.73;;;14.80;99.90;;;;;;4959025;28;20231;-87
2024/02/09 08:50:50;;;;;;;3.43;2.37;;;14.40;99.90;;;;;;4961266;28;20223;-87
2024/02/09 08:53:16;;;;;;;3.43;1.60;;;14.60;99.90;;;;;;4964304;28;20196;-87
2024/02/09 08:55:42;;;;;;;2.35;1.88;;;14.50;99.90;;;;;;4964468;28;20303;-86
2024/02/09 08:58:08;;;;;;;1.95;1.67;;;15.10;99.90;;;;;;4967093;28;20195;-86
2024/02/09 09:00:33;;;;;;;1.70;1.57;;;14.90;99.90;;;;;;5004844;23;20239;-87
2024/02/09 09:02:59;;;;;;;1.60;1.37;;;15.00;99.90;;;;;;5000220;28;20453;-86
2024/02/09 09:05:29;;;;;;;3.05;2.75;;;15.70;99.90;;;;;;5004963;28;20220;-87
2024/02/09 09:07:55;;;;;;;2.00;1.80;;;15.40;99.90;;;;;;4981387;28;20267;-86
2024/02/09 09:10:20;;;;;;;3.08;1.83;;;15.80;99.90;;;;;;4979824;28;20214;-86
2024/02/09 09:12:46;;;;;;;3.43;1.90;;;15.70;99.90;;;;;;4991125;28;20188;-87
2024/02/09 09:15:12;;;;;;;2.53;1.83;;;15.40;99.90;;;;;;4989418;28;20227;-87
2024/02/09 09:17:38;;;;;;;3.60;2.30;;;16.50;99.90;;;;;;4980186;28;20175;-87
2024/02/09 09:20:05;;;;;;;2.80;1.60;;;16.30;99.90;;;;;;4985951;28;20183;-86
2024/02/09 09:22:31;;;;;;;7.55;2.70;;;16.40;99.90;;;;;;4980231;28;20397;-87
2024/02/09 09:24:56;;;;;;;3.30;1.67;;;16.70;99.90;;;;;;4986696;28;20275;-85
2024/02/09 09:27:23;;;;;;;2.70;1.80;;;16.70;99.90;;;;;;4984107;28;20679;-86
2024/02/09 09:29:52;;;;;;;2.70;1.20;;;16.60;99.90;;;;;;4972241;28;20189;-86
2024/02/09 09:32:20;;;;;;;1.90;1.40;;;16.50;99.80;;;;;;4995427;28;20567;-86
2024/02/09 09:34:46;;;;;;;5.95;1.80;;;16.60;99.30;;;;;;4982226;28;20555;-86
2024/02/09 09:37:11;;;;;;;2.22;1.50;;;16.50;99.40;;;;;;4981056;28;20183;-87
2024/02/09 09:39:37;;;;;;;2.10;1.10;;;16.00;98.90;;;;;;4982933;28;20270;-85
2024/02/09 09:42:03;;;;;;;2.13;1.90;;;15.50;98.30;;;;;;4981009;28;20194;-87
2024/02/09 09:44:29;;;;;;;1.70;1.20;;;16.60;98.70;;;;;;4986860;28;20261;-87
2024/02/09 09:46:57;;;;;;;2.55;1.38;;;16.50;98.90;;;;;;4997858;28;20202;-87
2024/02/09 09:49:26;;;;;;;3.05;1.40;;;16.10;98.50;;;;;;4999456;28;20440;-87
2024/02/09 09:51:57;;;;;;;1.90;1.27;;;16.20;98.60;;;;;;4998095;28;20208;-87
2024/02/09 09:54:26;;;;;;;3.45;1.70;;;16.10;99.00;;;;;;4993149;28;20253;-87
2024/02/09 09:56:53;;;;;;;2.88;1.45;;;16.40;99.30;;;;;;4972075;28;20207;-87
2024/02/09 09:59:19;;;;;;;1.60;1.20;;;15.80;99.20;;;;;;4984597;28;20184;-87
2024/02/09 10:01:52;;;;;;;3.90;1.40;;;15.90;99.50;;;;;;4988824;28;20215;-87
2024/02/09 10:04:18;;;;;;;2.67;1.20;;;16.50;99.90;;;;;;4987183;28;20479;-87
2024/02/09 10:06:44;;;;;;;2.60;1.50;;;16.70;99.50;;;;;;4982886;28;20200;-86
2024/02/09 10:09:12;;;;;;;1.90;1.42;;;16.30;98.50;;;;;;4987556;28;20196;-86
2024/02/09 10:11:40;;;;;;;3.63;1.55;;;16.10;98.10;;;;;;4987047;28;20822;-87
2024/02/09 10:14:23;;;;;;;5.20;1.50;;;16.50;98.40;;;;;;4981065;28;20183;-86
2024/02/09 10:16:49;;;;;;;2.30;1.35;;;17.00;98.30;;;;;;4985856;28;20199;-86
2024/02/09 10:19:16;;;;;;;1.57;1.20;;;16.30;97.70;;;;;;4981941;28;20287;-86
2024/02/09 10:21:42;;;;;;;2.05;1.80;;;16.10;97.90;;;;;;4987256;28;20191;-86
2024/02/09 10:24:10;;;;;;;2.08;1.30;;;16.50;98.40;;;;;;4976148;28;20286;-87
2024/02/09 10:26:36;;;;;;;2.28;1.42;;;15.90;98.30;;;;;;4972687;28;20274;-88
2024/02/09 10:29:03;;;;;;;2.30;1.10;;;15.70;98.50;;;;;;4969161;28;20183;-88
2024/02/09 10:31:30;;;;;;;2.70;1.90;;;15.30;98.00;;;;;;4978565;28;20180;-87
2024/02/09 10:33:57;;;;;;;2.05;1.40;;;16.10;98.80;;;;;;5005841;28;20168;-88
2024/02/09 10:36:23;;;;;;;1.93;1.30;;;15.70;98.80;;;;;;4988350;28;20231;-88
2024/02/09 10:38:49;;;;;;;2.63;1.60;;;16.90;99.50;;;;;;4978356;28;20458;-88
2024/02/09 10:41:18;;;;;;;2.90;1.83;;;15.90;99.00;;;;;;4978716;28;20743;-88
2024/02/09 10:43:47;;;;;;;1.73;1.63;;;15.70;98.80;;;;;;4984445;28;20234;-89
2024/02/09 10:46:17;;;;;;;2.53;1.45;;;15.70;98.90;;;;;;4990795;28;20228;-88
2024/02/09 10:48:47;;;;;;;2.42;1.58;;;16.00;98.40;;;;;;4990641;28;20196;-88
2024/02/09 10:51:16;;;;;;;2.25;1.20;;;16.30;98.00;;;;;;4978208;28;20176;-88
2024/02/09 10:54:08;;;;;;;3.33;1.70;;;17.50;98.90;;;;;;4976364;28;20195;-88
2024/02/09 10:56:36;;;;;;;1.63;1.13;;;16.30;97.90;;;;;;4970927;28;20278;-88
2024/02/09 10:59:05;;;;;;;1.50;1.30;;;16.40;97.70;;;;;;4974018;28;20202;-88
2024/02/09 11:01:33;;;;;;;1.45;1.23;;;16.20;97.70;;;;;;4987950;28;20620;-88
2024/02/09 11:04:00;;;;;;;2.53;1.30;;;16.40;98.00;;;;;;4971769;28;20195;-88
2024/02/09 11:06:26;;;;;;;1.35;1.20;;;16.00;97.80;;;;;;4974228;28;20208;-88
2024/02/09 11:08:53;;;;;;;2.33;1.63;;;16.00;97.80;;;;;;4970319;28;20452;-88
2024/02/09 11:11:21;;;;;;;2.97;1.20;;;16.40;98.10;;;;;;4973788;28;20229;-88
2024/02/09 11:13:47;;;;;;;4.00;1.70;;;16.20;98.10;;;;;;4968216;28;20199;-88
2024/02/09 11:16:12;;;;;;;1.50;1.20;;;16.20;98.10;;;;;;4972864;28;20207;-88
2024/02/09 11:18:39;;;;;;;4.30;2.63;;;16.50;98.20;;;;;;4968629;28;20687;-88
2024/02/09 11:21:06;;;;;;;2.35;1.50;;;15.90;97.90;;;;;;4971800;28;20215;-88
2024/02/09 11:23:36;;;;;;;1.60;1.10;;;16.30;97.90;;;;;;4970312;28;20535;-88
2024/02/09 11:26:07;;;;;;;5.07;3.13;;;16.10;97.40;;;;;;4978545;28;20207;-88
2024/02/09 11:28:34;;;;;;;3.13;1.15;;;16.50;97.70;;;;;;4970426;28;20862;-88
2024/02/09 11:31:00;;;;;;;4.50;1.55;;;16.40;96.90;;;;;;4969561;28;20185;-87
2024/02/09 11:33:25;;;;;;;4.47;1.30;;;16.50;97.10;;;;;;4973375;28;20210;-88
2024/02/09 11:35:54;;;;;;;5.83;1.47;;;16.70;97.30;;;;;;4965652;28;20465;-88
2024/02/09 11:38:21;;;;;;;6.15;2.10;;;16.60;97.00;;;;;;4972239;28;20227;-88
2024/02/09 11:40:50;;;;;;;5.20;1.90;;;16.30;96.80;;;;;;4971985;28;20582;-88
2024/02/09 11:43:16;;;;;;;2.67;2.10;;;16.50;97.30;;;;;;4972887;28;20616;-88
2024/02/09 11:45:44;;;;;;;1.30;1.10;;;16.90;97.50;;;;;;4968498;28;20204;-88
2024/02/09 11:48:11;;;;;;;3.47;1.40;;;16.80;97.00;;;;;;4968057;28;20451;-88
2024/02/09 11:50:36;;;;;;;1.98;1.35;;;16.40;96.60;;;;;;4973047;28;20179;-88
2024/02/09 11:53:03;;;;;;;1.60;1.27;;;16.60;96.80;;;;;;4969847;28;20254;-88
2024/02/09 11:55:29;;;;;;;2.35;1.40;;;16.20;96.80;;;;;;4971921;28;20479;-88
2024/02/09 11:57:55;;;;;;;2.97;1.30;;;16.40;97.20;;;;;;4971991;28;20184;-88
2024/02/09 12:00:25;;;;;;;3.20;1.90;;;16.30;97.30;;;;;;4939522;28;1061546;-88
2024/02/09 12:02:51;;;;;;;2.90;1.35;;;17.50;98.30;;;;;;4972539;28;20450;-88
2024/02/09 12:05:17;;;;;;;1.50;1.17;;;15.70;97.20;;;;;;4973903;28;20299;-88
2024/02/09 12:07:43;;;;;;;2.38;1.55;;;15.80;97.30;;;;;;4973755;28;20491;-88
2024/02/09 12:10:09;;;;;;;2.70;1.40;;;16.10;97.90;;;;;;4978991;28;20183;-88
2024/02/09 12:12:35;;;;;;;2.90;1.63;;;15.40;97.90;;;;;;4979646;28;20203;-88
2024/02/09 12:15:02;;;;;;;1.38;1.10;;;16.90;98.80;;;;;;4974496;28;20217;-88
2024/02/09 12:17:30;;;;;;;1.83;1.60;;;17.80;99.60;;;;;;4975614;28;20695;-88
2024/02/09 12:20:10;;;;;;;2.53;1.65;;;15.60;97.50;;;;;;4979544;28;20212;-88
2024/02/09 12:22:39;;;;;;;2.35;1.65;;;15.70;97.70;;;;;;4974276;28;20234;-88
2024/02/09 12:25:06;;;;;;;1.63;1.30;;;15.50;98.00;;;;;;4982858;28;20207;-88
2024/02/09 12:27:31;;;;;;;2.13;1.40;;;15.80;98.00;;;;;;4973326;28;20215;-88
2024/02/09 12:29:57;;;;;;;3.07;2.20;;;15.70;98.00;;;;;;4994657;28;20185;-88
2024/02/09 12:32:22;;;;;;;1.93;1.57;;;16.00;98.40;;;;;;4983699;28;20207;-88
2024/02/09 12:34:50;;;;;;;2.37;1.70;;;;;;;;;;4992338;28;20656;-88
2024/02/09 12:37:17;;;;;;;2.80;1.50;;;15.90;98.40;;;;;;4992414;28;20187;-88
2024/02/09 12:39:55;;;;;;;2.65;1.83;;;15.90;98.40;;;;;;4993161;28;20238;-88
2024/02/09 12:42:22;;;;;;;3.30;1.63;;;16.10;98.80;;;;;;4990949;28;20211;-88
2024/02/09 12:44:51;;;;;;;1.63;1.10;;;15.70;98.30;;;;;;4989805;28;20271;-87
2024/02/09 12:47:17;;;;;;;2.78;1.85;;;15.70;98.80;;;;;;4992444;28;20243;-87
2024/02/09 12:49:43;;;;;;;3.53;1.90;;;15.50;99.00;;;;;;4995745;28;20185;-88
2024/02/09 12:52:14;;;;;;;1.40;1.30;;;16.00;99.60;;;;;;4992610;28;20186;-88
2024/02/09 12:54:40;;;;;;;2.33;1.48;;;15.70;99.60;;;;;;4985973;28;20223;-88
2024/02/09 12:57:06;;;;;;;2.83;1.55;;;15.50;99.40;;;;;;4986181;28;20182;-88
2024/02/09 12:59:34;;;;;;;2.97;1.60;;;15.60;99.90;;;;;;4991301;28;20259;-88
2024/02/09 13:02:04;;;;;;;4.32;2.50;;;15.50;99.90;;;;;;4983565;28;20183;-87
2024/02/09 13:04:31;;;;;;;2.15;1.67;;;15.40;99.90;;;;;;4974333;28;20495;-88
2024/02/09 13:06:56;;;;;;;1.50;1.40;;;15.40;99.90;;;;;;4982712;28;20191;-88
2024/02/09 13:09:22;;;;;;;2.30;1.50;;;15.60;99.90;;;;;;4970292;28;20595;-87
2024/02/09 13:11:49;;;;;;;2.30;1.50;;;16.40;99.90;;;;;;4967596;28;20298;-88
2024/02/09 13:14:17;;;;;;;3.03;1.77;;;15.60;99.90;;;;;;4986692;28;20196;-88
2024/02/09 13:16:43;;;;;;;3.03;1.35;;;15.20;99.90;;;;;;4970484;28;20223;-88
2024/02/09 13:19:10;;;;;;;3.20;1.33;;;16.10;99.90;;;;;;4973620;28;20184;-87
2024/02/09 13:21:35;;;;;;;1.63;1.30;;;15.40;99.90;;;;;;4971916;28;20191;-87
2024/02/09 13:24:06;;;;;;;1.60;1.50;;;15.10;99.90;;;;;;4985498;28;20183;-88
2024/02/09 13:26:33;;;;;;;2.85;2.28;;;16.60;99.90;;;;;;4991436;28;20218;-88
2024/02/09 13:29:01;;;;;;;1.50;1.30;;;15.40;99.90;;;;;;4959940;28;20180;-88
2024/02/09 13:31:27;;;;;;;2.00;1.80;;;15.10;99.90;;;;;;4966769;28;20211;-88
2024/02/09 13:33:53;;;;;;;2.78;1.80;;;15.40;99.90;;;;;;4964675;28;20191;-88
2024/02/09 13:36:20;;;;;;;2.60;1.40;;;15.50;99.90;;;;;;4992568;28;20211;-87
2024/02/09 13:38:46;;;;;;;2.88;1.98;;;15.20;99.90;;;;;;4992087;28;20186;-88
2024/02/09 13:41:12;;;;;;;1.38;1.23;;;15.30;99.90;;;;;;4958508;28;20192;-88
2024/02/09 13:43:39;;;;;;;1.70;1.40;;;15.40;99.90;;;;;;4994502;28;20168;-88
2024/02/09 13:46:05;;;;;;;2.70;1.60;;;14.90;99.90;;;;;;4986479;28;20463;-88
2024/02/09 13:48:31;;;;;;;1.50;1.27;;;14.90;99.90;;;;;;4987554;28;20176;-88
2024/02/09 13:50:57;;;;;;;2.90;1.70;;;15.60;99.90;;;;;;4971970;28;20916;-87
2024/02/09 13:53:23;;;;;;;1.70;1.42;;;14.90;99.90;;;;;;4970431;28;20191;-88
2024/02/09 13:55:49;;;;;;;2.23;1.80;;;16.30;99.90;;;;;;4971295;28;20207;-88
2024/02/09 13:58:15;;;;;;;2.23;1.87;;;15.60;99.90;;;;;;4973923;28;20183;-88
2024/02/09 14:00:42;;;;;;;5.80;1.87;;;15.60;99.90;;;;;;4970285;28;20200;-88
2024/02/09 14:03:08;;;;;;;2.28;1.35;;;15.10;99.90;;;;;;4973792;28;20434;-88
2024/02/09 14:05:34;;;;;;;1.92;1.70;;;15.50;99.90;;;;;;4981651;28;20207;-88
2024/02/09 14:07:59;;;;;;;2.00;1.80;;;15.50;99.90;;;;;;4975141;28;20655;-88
2024/02/09 14:10:25;;;;;;;4.13;1.90;;;15.00;99.90;;;;;;4970946;28;20253;-88
2024/02/09 14:12:52;;;;;;;2.23;1.33;;;15.10;99.90;;;;;;4991724;28;20223;-88
2024/02/09 14:15:18;;;;;;;3.05;1.42;;;15.40;99.90;;;;;;4969841;28;20208;-88
2024/02/09 14:17:43;;;;;;;3.60;1.83;;;15.80;99.90;;;;;;4976978;28;20279;-88
2024/02/09 14:20:09;;;;;;;2.17;2.07;;;15.60;99.90;;;;;;4972856;28;20187;-88
2024/02/09 14:22:35;;;;;;;3.58;1.95;;;15.50;99.90;;;;;;4972334;28;20188;-88
2024/02/09 14:25:02;;;;;;;3.53;2.27;;;15.30;99.90;;;;;;4974744;28;20212;-88
2024/02/09 14:27:29;;;;;;;1.60;1.50;;;15.60;99.90;;;;;;4960832;28;20438;-88
2024/02/09 14:29:54;;;;;;;3.50;2.13;;;15.70;99.90;;;;;;4974580;28;20686;-88
2024/02/09 14:32:21;;;;;;;4.70;1.80;;;15.60;99.90;;;;;;4976534;28;20195;-88
2024/02/09 14:34:47;;;;;;;3.63;1.70;;;15.40;99.90;;;;;;4973725;28;20215;-88